Flight Track Log - Related Links

Times and Time Zones

All times are in EDT time to prevent confusion due to time zone crossing. See the SWA469 flight status page for this flight to view local times or setup timezone preferences in your user account.

Time Position Orientation Groundspeed Altitude Reporting Facility
EDT Latitude Longitude Course Direction KTS MPH feet Rate Location/Type
Sun 09:08:47 AM 41.8000 -87.7000 177° South 183 211 2,400  Level Chicago TRACON
Sun 09:10:24 AM 41.6986 -87.6928 177° South 283 326 6,700 3,152 Climbing Chicago Center
Sun 09:11:25 AM 41.6278 -87.7389 206° Southwest 282 325 10,700 3,220 Climbing Chicago Center
Sun 09:12:27 AM 41.5472 -87.7903 206° Southwest 326 375 13,300 2,878 Climbing Chicago Center
Sun 09:13:28 AM 41.4581 -87.8500 207° Southwest 352 405 16,600 3,073 Climbing Chicago Center
Sun 09:14:00 AM 41.0890 -87.8825 177° South  Level FlightAware Approximate
Sun 09:14:30 AM 41.3569 -87.8839 194° South 376 433 19,600  Level Chicago Center
Sun 09:15:32 AM 41.2456 -87.8931 184° South 393 452 22,100 2,439 Climbing Chicago Center
Sun 09:16:33 AM 41.1294 -87.8897 179° South 412 474 24,600 2,390 Climbing Chicago Center
Sun 09:17:35 AM 41.0108 -87.8858 179° South 424 488 27,000 2,195 Climbing Chicago Center
Sun 09:18:36 AM 40.8889 -87.8797 178° South 435 501 29,100 2,081 Climbing Chicago Center
Sun 09:19:39 AM 40.7417 -87.8767 179° South 443 510 31,300 1,839 Climbing Chicago Center
Sun 09:20:40 AM 40.6169 -87.8722 178° South 447 514 32,900 1,475 Climbing Chicago Center
Sun 09:21:41 AM 40.4886 -87.8675 178° South 460 529 34,300 1,317 Climbing Chicago Center
Sun 09:22:43 AM 40.3597 -87.8647 179° South 466 536 35,600 1,585 Climbing Chicago Center
Sun 09:23:27 AM 40.2486 -87.8633 179° South 469 540 37,100 1,755 Climbing Indianapolis Center
Sun 09:24:29 AM 40.1233 -87.8378 171° South 458 527 38,700 927 Climbing Indianapolis Center
Sun 09:25:30 AM 40.0022 -87.7986 166° South 449 517 39,000 146 Climbing Indianapolis Center
Sun 09:26:32 AM 39.8792 -87.7617 167° South 450 518 39,000  Level Indianapolis Center
Sun 09:27:34 AM 39.7586 -87.7258 167° South 446 513 39,000  Level Indianapolis Center
Sun 09:28:35 AM 39.6367 -87.6881 167° South 447 514 39,000  Level Indianapolis Center
Sun 09:29:37 AM 39.5153 -87.6514 167° South 446 513 39,000  Level Indianapolis Center
Sun 09:30:38 AM 39.3750 -87.6089 167° South 444 511 39,000  Level Indianapolis Center
Sun 09:31:40 AM 39.2539 -87.5733 167° South 444 511 39,000  Level Indianapolis Center
Sun 09:32:42 AM 39.1319 -87.5367 167° South 447 514 39,000  Level Indianapolis Center
Sun 09:33:43 AM 39.0219 -87.5056 168° South 446 513 39,000  Level Indianapolis Center
Sun 09:34:45 AM 38.9003 -87.4686 167° South 447 514 39,000  Level Indianapolis Center
Sun 09:35:47 AM 38.7536 -87.4250 167° South 451 519 39,000  Level Indianapolis Center
Sun 09:36:48 AM 38.6322 -87.3897 167° South 447 514 39,000  Level Indianapolis Center
Sun 09:37:50 AM 38.5114 -87.3550 167° South 446 513 39,000  Level Indianapolis Center
Sun 09:38:52 AM 38.3892 -87.3194 167° South 452 520 39,000  Level Indianapolis Center
Sun 09:39:53 AM 38.2683 -87.2844 167° South 452 520 39,000  Level Indianapolis Center
Sun 09:40:55 AM 38.1481 -87.2497 167° South 450 518 39,000  Level Indianapolis Center
Sun 09:41:57 AM 38.0019 -87.2072 167° South 451 519 39,000  Level Indianapolis Center
Sun 09:42:58 AM 37.8814 -87.1717 167° South 446 513 39,000  Level Indianapolis Center
Sun 09:44:00 AM 37.7614 -87.1378 167° South 441 507 39,000  Level Indianapolis Center
Sun 09:45:02 AM 37.6411 -87.1028 167° South 442 509 39,000  Level Indianapolis Center
Sun 09:45:45 AM 37.5447 -87.0772 168° South 433 498 39,000  Level Memphis Center
Sun 09:46:45 AM 37.4250 -87.0431 167° South 433 498 39,000  Level Memphis Center
Sun 09:47:45 AM 37.3097 -87.0114 168° South 433 498 39,000  Level Memphis Center
Sun 09:48:45 AM 37.1900 -86.9772 167° South 433 498 39,000  Level Memphis Center
Sun 09:49:45 AM 37.0744 -86.9458 168° South 433 498 39,000  Level Memphis Center
Sun 09:50:45 AM 36.9717 -86.9164 167° South 428 493 39,000  Level Memphis Center
Sun 09:51:45 AM 36.8539 -86.8825 167° South 423 487 39,000  Level Memphis Center
Sun 09:52:45 AM 36.7386 -86.8514 168° South 423 487 39,000  Level Memphis Center
Sun 09:53:45 AM 36.6228 -86.8175 167° South 429 494 39,000  Level Memphis Center
Sun 09:54:45 AM 36.5072 -86.7839 167° South 430 495 39,000  Level Memphis Center
Sun 09:55:45 AM 36.4022 -86.7550 168° South 430 495 39,000  Level Memphis Center
Sun 09:56:45 AM 36.2594 -86.7175 168° South 430 495 39,000  Level Memphis Center
Sun 09:57:45 AM 36.1417 -86.6842 167° South 430 495 39,000  Level Memphis Center
Sun 09:58:45 AM 36.0297 -86.6328 160° South 436 502 39,000  Level Memphis Center
Sun 09:59:45 AM 35.9281 -86.5836 159° South 436 502 39,000  Level Memphis Center
Sun 10:02:42 AM 35.5806 -86.4108 158° South 435 501 39,000  Level Atlanta Center
Sun 10:03:42 AM 35.4650 -86.3567 159° South 447 514 39,000  Level Atlanta Center
Sun 10:04:42 AM 35.3492 -86.2972 157° South 447 514 39,000  Level Atlanta Center
Sun 10:05:42 AM 35.2333 -86.2433 159° South 447 514 39,000  Level Atlanta Center
Sun 10:06:42 AM 35.1197 -86.1819 156° South 452 520 39,000  Level Atlanta Center
Sun 10:07:42 AM 35.0097 -86.1333 160° South 452 520 39,000  Level Atlanta Center
Sun 10:08:42 AM 34.8794 -86.0669 157° South 459 528 39,000  Level Atlanta Center
Sun 10:09:42 AM 34.7614 -86.0083 158° South 459 528 39,000  Level Atlanta Center
Sun 10:10:42 AM 34.6414 -85.9525 159° South 459 528 39,000  Level Atlanta Center
Sun 10:11:42 AM 34.5253 -85.8944 158° South 459 528 39,000  Level Atlanta Center
Sun 10:12:42 AM 34.4053 -85.8389 159° South 459 528 39,000  Level Atlanta Center
Sun 10:13:42 AM 34.2972 -85.7939 161° South 459 528 39,000  Level Atlanta Center
Sun 10:14:42 AM 34.1750 -85.7336 158° South 467 537 39,000  Level Atlanta Center
Sun 10:15:42 AM 34.0525 -85.6786 160° South 467 537 39,000  Level Atlanta Center
Sun 10:16:42 AM 33.9303 -85.6186 158° South 473 544 39,000  Level Atlanta Center
Sun 10:17:42 AM 33.8036 -85.5589 159° South 479 551 39,000  Level Atlanta Center
Sun 10:18:42 AM 33.6792 -85.5017 159° South 479 551 39,000  Level Atlanta Center
Sun 10:19:42 AM 33.5525 -85.4447 159° South 485 558 39,000  Level Atlanta Center
Sun 10:20:42 AM 33.4278 -85.3853 158° South 480 552 39,000  Level Atlanta Center
Sun 10:21:42 AM 33.2992 -85.3261 159° South 488 562 39,000  Level Atlanta Center
Sun 10:22:42 AM 33.1725 -85.2672 159° South 488 562 39,000  Level Atlanta Center
Sun 10:23:42 AM 33.0375 -85.1983 157° South 488 562 39,000  Level Atlanta Center
Sun 10:24:42 AM 32.9083 -85.1547 164° South 488 562 39,000  Level Atlanta Center
Sun 10:25:42 AM 32.7772 -85.1086 164° South 475 547 39,000  Level Atlanta Center
Sun 10:26:42 AM 32.6483 -85.0650 164° South 469 540 39,000  Level Atlanta Center
Sun 10:27:42 AM 32.5211 -85.0242 165° South 480 552 39,000  Level Atlanta Center
Sun 10:28:42 AM 32.3942 -84.9811 164° South 480 552 39,000  Level Atlanta Center
Sun 10:29:42 AM 32.2653 -84.9378 164° South 480 552 39,000  Level Atlanta Center
Sun 10:30:42 AM 32.1506 -84.9025 165° South 472 543 39,000  Level Atlanta Center
Sun 10:31:42 AM 32.0214 -84.8619 165° South 477 549 39,000  Level Atlanta Center
Sun 10:32:42 AM 31.8944 -84.8192 164° South 475 547 39,000  Level Atlanta Center
Sun 10:34:16 AM 31.6853 -84.7481 164° South 463 533 39,000  Level Jacksonville Center
Sun 10:35:16 AM 31.5564 -84.7042 164° South 463 533 39,000  Level Jacksonville Center
Sun 10:36:16 AM 31.4275 -84.6625 165° South 473 544 39,000  Level Jacksonville Center
Sun 10:37:16 AM 31.3008 -84.6214 164° South 473 544 39,000  Level Jacksonville Center
Sun 10:38:16 AM 31.1742 -84.5778 164° South 473 544 39,000  Level Jacksonville Center
Sun 10:39:16 AM 31.0453 -84.5342 164° South 473 544 39,000  Level Jacksonville Center
Sun 10:40:16 AM 30.9203 -84.4933 164° South 473 544 39,000  Level Jacksonville Center
Sun 10:41:16 AM 30.7936 -84.4525 165° South 473 544 39,000  Level Jacksonville Center
Sun 10:42:16 AM 30.6647 -84.4092 164° South 473 544 39,000  Level Jacksonville Center
Sun 10:43:16 AM 30.5628 -84.3786 166° South 473 544 39,000  Level Jacksonville Center
Sun 10:44:16 AM 30.4322 -84.2947 151° Southeast 473 544 39,000  Level Jacksonville Center
Sun 10:45:16 AM 30.3139 -84.2161 150° Southeast 485 558 39,000  Level Jacksonville Center
Sun 10:46:16 AM 30.1978 -84.1400 150° Southeast 485 558 39,000  Level Jacksonville Center
Sun 10:47:16 AM 30.0794 -84.0639 151° Southeast 491 565 39,000  Level Jacksonville Center
Sun 10:48:16 AM 29.9592 -83.9881 151° Southeast 491 565 39,000  Level Jacksonville Center
Sun 10:49:16 AM 29.8428 -83.9128 151° Southeast 491 565 39,000  Level Jacksonville Center
Sun 10:50:16 AM 29.7244 -83.8350 150° Southeast 491 565 39,000  Level Jacksonville Center
Sun 10:51:16 AM 29.5914 -83.7500 151° Southeast 496 571 39,000  Level Jacksonville Center
Sun 10:52:16 AM 29.4750 -83.6728 150° Southeast 496 571 39,000  Level Jacksonville Center
Sun 10:53:16 AM 29.3544 -83.5956 151° Southeast 496 571 39,000  Level Jacksonville Center
Sun 10:54:16 AM 29.2358 -83.5208 151° Southeast 496 571 39,000  Level Jacksonville Center
Sun 10:55:16 AM 29.1172 -83.4417 150° Southeast 491 565 39,000  Level Jacksonville Center
Sun 10:56:16 AM 28.9964 -83.3697 152° Southeast 491 565 39,000  Level Jacksonville Center
Sun 10:57:16 AM 28.8733 -83.3100 157° South 491 565 39,000  Level Jacksonville Center
Sun 10:58:16 AM 28.7483 -83.2644 162° South 485 558 39,000 -900 Level Jacksonville Center
Sun 10:59:16 AM 28.6211 -83.2189 163° South 480 552 37,200 -2,150 Descending Jacksonville Center
Sun 11:00:16 AM 28.4961 -83.1736 162° South 480 552 34,700 -2,400 Descending Jacksonville Center
Sun 11:01:16 AM 28.3792 -83.1286 161° South 474 545 32,400 -2,192 Descending Jacksonville Center
Sun 11:02:52 AM 28.1917 -83.0603 162° South 457 526 29,000 -2,090 Descending Miami Center
Sun 11:03:51 AM 28.0808 -83.0211 163° South 437 503 27,000 -1,008 Descending Miami Center
Sun 11:04:51 AM 27.9744 -82.9731 158° South 423 487 27,000 -50 Level Miami Center
Sun 11:05:51 AM 27.8700 -82.9275 159° South 413 475 26,900 -595 Descending Miami Center
Sun 11:06:52 AM 27.7678 -82.8775 157° South 399 459 25,800 -1,050 Descending Miami Center
Sun 11:07:51 AM 27.6611 -82.8322 159° South 399 459 24,800 -958 Descending Miami Center
Sun 11:08:51 AM 27.5669 -82.7922 159° South 386 444 23,900 -942 Descending Miami Center
Sun 11:09:52 AM 27.4831 -82.7528 157° South 367 422 22,900 -1,000 Descending Miami Center
Sun 11:10:51 AM 27.3928 -82.7106 157° South 361 415 21,900 -1,050 Descending Miami Center
Sun 11:11:52 AM 27.2883 -82.6656 159° South 361 415 20,800 -1,050 Descending Miami Center
Sun 11:12:51 AM 27.2069 -82.6103 149° Southeast 356 410 19,800 -1,109 Descending Miami Center
Sun 11:13:51 AM 27.1361 -82.5531 144° Southeast 356 410 18,600 -1,388 Descending Miami Center
Sun 11:14:52 AM 27.0553 -82.4908 146° Southeast 351 404 17,000 -1,686 Descending Miami Center
Sun 11:15:52 AM 26.9822 -82.4336 145° Southeast 335 386 15,200 -1,765 Descending Miami Center
Sun 11:16:51 AM 26.9114 -82.3767 144° Southeast 322 371 13,500 -1,462 Descending Miami Center
Sun 11:17:51 AM 26.8506 -82.3275 144° Southeast 311 358 12,300 -1,200 Descending Miami Center
Sun 11:18:51 AM 26.7839 -82.2731 144° Southeast 304 350 11,100 -1,250 Descending Miami Center
Sun 11:19:51 AM 26.7189 -82.2236 146° Southeast 298 343 9,800 -1,350 Descending Miami Center
Sun 11:20:51 AM 26.6539 -82.1719 145° Southeast 298 343 8,400 -1,450 Descending Miami Center
Sun 11:21:51 AM 26.5911 -82.1225 145° Southeast 293 337 6,900 -1,450 Descending Miami Center
Sun 11:22:51 AM 26.5475 -82.0533 125° Southeast 280 322 5,500 -1,450 Descending Miami Center
Sun 11:23:51 AM 26.5039 -81.9889 127° Southeast 269 310 4,000 -1,400 Descending Miami Center
Sun 11:24:51 AM 26.4625 -81.9244 126° Southeast 263 303 2,700 -1,300 Descending Miami Center
Sun 11:26:00 AM 26.4834 -81.8166 50° Northeast  Level FlightAware Approximate
Sun 11:33:00 AM 26.5333 -81.7500 50° Northeast  Level FlightAware Approximate
Sun 11:34:00 AM 26.5362 -81.7552 50° Northeast  Level Estimated
Sun 11:35:00 AM 26.5333 -81.7500 50° Northeast  Level FlightAware Approximate
Sun 11:36:00 AM 26.5362 -81.7552 50° Northeast  Level Estimated
Sun 11:37:00 AM 26.5333 -81.7500 50° Northeast  Level FlightAware Approximate

Login

Don't have an account? Register now (free) for customized features, flight alerts, and more!